createdAt,value
2023-05-25T00:01:05.147Z,3.97
2023-05-25T00:03:32.869Z,3.37
2023-05-25T00:06:03.297Z,3.73
2023-05-25T00:08:30.703Z,3.40
2023-05-25T00:10:57.829Z,3.50
2023-05-25T00:13:25.311Z,4.00
2023-05-25T00:15:52.374Z,3.60
2023-05-25T00:18:19.449Z,3.90
2023-05-25T00:20:47.684Z,3.33
2023-05-25T00:23:15.075Z,3.17
2023-05-25T00:25:42.567Z,3.20
2023-05-25T00:28:11.338Z,3.40
2023-05-25T00:30:38.959Z,3.40
2023-05-25T00:33:06.931Z,4.07
2023-05-25T00:35:34.096Z,4.30
2023-05-25T00:38:01.187Z,3.40
2023-05-25T00:40:28.301Z,3.90
2023-05-25T00:42:56.302Z,4.53
2023-05-25T00:45:23.597Z,3.17
2023-05-25T00:47:54.380Z,3.60
2023-05-25T00:50:37.976Z,3.40
2023-05-25T00:53:09.173Z,4.03
2023-05-25T00:55:41.413Z,3.30
2023-05-25T00:58:11.507Z,3.47
2023-05-25T01:00:42.900Z,3.90
2023-05-25T01:03:17.904Z,4.00
2023-05-25T01:05:48.293Z,3.70
2023-05-25T01:08:20.117Z,4.17
2023-05-25T01:10:49.303Z,3.87
2023-05-25T01:13:19.069Z,4.10
2023-05-25T01:15:47.736Z,3.27
2023-05-25T01:18:15.900Z,4.13
2023-05-25T01:20:57.220Z,3.90
2023-05-25T01:23:30.459Z,3.90
2023-05-25T01:26:02.662Z,3.40
2023-05-25T01:28:41.100Z,4.53
2023-05-25T01:31:09.415Z,3.47
2023-05-25T01:33:38.402Z,3.70
2023-05-25T01:36:06.660Z,3.80
2023-05-25T01:38:34.706Z,4.37
2023-05-25T01:41:03.458Z,3.90
2023-05-25T01:43:30.769Z,4.20
2023-05-25T01:46:09.571Z,4.67
2023-05-25T01:49:16.893Z,3.80
2023-05-25T01:52:23.233Z,4.33
2023-05-25T01:55:13.067Z,4.10
2023-05-25T01:57:45.750Z,4.03
2023-05-25T02:00:14.227Z,4.50
2023-05-25T02:02:43.873Z,4.70
2023-05-25T02:05:11.872Z,4.50
2023-05-25T02:07:39.033Z,4.33
2023-05-25T02:10:07.069Z,4.40
2023-05-25T02:12:34.230Z,4.90
2023-05-25T02:15:01.345Z,4.93
2023-05-25T02:17:28.880Z,5.00
2023-05-25T02:19:56.353Z,4.50
2023-05-25T02:22:23.937Z,4.87
2023-05-25T02:24:50.964Z,4.10
2023-05-25T02:27:18.078Z,4.53
2023-05-25T02:29:45.794Z,4.13
2023-05-25T02:32:12.897Z,4.23
2023-05-25T02:34:39.956Z,4.47
2023-05-25T02:37:07.239Z,3.83
2023-05-25T02:39:34.311Z,4.57
2023-05-25T02:42:01.549Z,4.53
2023-05-25T02:44:28.779Z,4.73
2023-05-25T02:46:55.976Z,5.00
2023-05-25T02:49:24.018Z,4.40
2023-05-25T02:51:51.320Z,5.37
2023-05-25T02:54:18.750Z,4.90
2023-05-25T02:56:46.662Z,5.10
2023-05-25T02:59:16.010Z,5.17
2023-05-25T03:01:43.183Z,4.70
2023-05-25T03:04:10.528Z,4.57
2023-05-25T03:06:38.315Z,6.63
2023-05-25T03:09:12.730Z,5.40
2023-05-25T03:11:40.710Z,5.70
2023-05-25T03:14:11.427Z,4.50
2023-05-25T03:16:40.079Z,4.93
2023-05-25T03:19:07.534Z,5.63
2023-05-25T03:21:37.810Z,5.77
2023-05-25T03:24:05.369Z,4.80
2023-05-25T03:26:33.393Z,6.00
2023-05-25T03:29:01.834Z,5.47
2023-05-25T03:31:28.966Z,5.70
2023-05-25T03:33:56.090Z,5.87
2023-05-25T03:36:27.504Z,5.17
2023-05-25T03:38:54.983Z,5.27
2023-05-25T03:41:22.154Z,5.33
2023-05-25T03:43:49.845Z,5.60
2023-05-25T03:46:17.063Z,6.57
2023-05-25T03:48:44.307Z,6.15
2023-05-25T03:51:11.480Z,5.73
2023-05-25T03:53:39.331Z,5.50
2023-05-25T03:56:08.256Z,5.53
2023-05-25T03:58:37.520Z,5.60
2023-05-25T04:01:05.482Z,5.63
2023-05-25T04:03:33.195Z,6.03
2023-05-25T04:06:00.731Z,5.63
2023-05-25T04:08:28.782Z,5.80
2023-05-25T04:10:56.564Z,5.50
2023-05-25T04:13:23.701Z,5.60
2023-05-25T04:15:51.353Z,4.90
2023-05-25T04:18:22.229Z,4.77
2023-05-25T04:20:49.973Z,4.93
2023-05-25T04:23:21.330Z,5.53
2023-05-25T04:25:51.384Z,5.10
2023-05-25T04:28:19.104Z,4.97
2023-05-25T04:30:57.945Z,4.87
2023-05-25T04:33:48.211Z,4.87
2023-05-25T04:36:19.622Z,4.67
2023-05-25T04:38:48.024Z,5.17
2023-05-25T04:41:15.759Z,4.80
2023-05-25T04:44:04.731Z,5.00
2023-05-25T04:46:37.562Z,5.00
2023-05-25T04:49:05.947Z,4.83
2023-05-25T04:51:33.541Z,4.87
2023-05-25T04:54:00.659Z,4.50
2023-05-25T04:56:28.381Z,5.00
2023-05-25T04:58:55.499Z,4.27
2023-05-25T05:01:24.116Z,4.83
2023-05-25T05:03:53.507Z,4.67
2023-05-25T05:06:21.737Z,5.13
2023-05-25T05:08:50.274Z,4.73
2023-05-25T05:11:17.966Z,5.40
2023-05-25T05:13:45.246Z,5.43
2023-05-25T05:16:12.360Z,5.27
2023-05-25T05:18:39.980Z,5.03
2023-05-25T05:21:07.093Z,4.77
2023-05-25T05:23:35.725Z,5.53
2023-05-25T05:26:05.025Z,5.07
2023-05-25T05:28:32.129Z,5.20
2023-05-25T05:30:59.460Z,5.33
2023-05-25T05:33:26.737Z,5.90
2023-05-25T05:35:54.801Z,4.30
2023-05-25T05:38:23.141Z,5.50
2023-05-25T05:40:50.266Z,5.07
2023-05-25T05:43:22.922Z,4.67
2023-05-25T05:45:50.197Z,5.50
2023-05-25T05:48:17.347Z,4.93
2023-05-25T05:50:44.904Z,5.50
2023-05-25T05:53:13.650Z,4.90
2023-05-25T05:55:41.165Z,5.37
2023-05-25T05:58:08.352Z,5.07
2023-05-25T06:00:35.598Z,4.70
2023-05-25T06:03:02.749Z,4.40
2023-05-25T06:05:31.235Z,4.57
2023-05-25T06:07:59.025Z,4.63
2023-05-25T06:10:26.090Z,5.77
2023-05-25T06:12:54.053Z,5.23
2023-05-25T06:15:21.748Z,5.30
2023-05-25T06:17:51.381Z,5.37
2023-05-25T06:20:18.674Z,5.43
2023-05-25T06:22:46.821Z,5.63
2023-05-25T06:25:14.154Z,6.33
2023-05-25T06:27:41.349Z,6.27
2023-05-25T06:30:09.023Z,5.83
2023-05-25T06:32:37.343Z,6.20
2023-05-25T06:35:07.977Z,6.47
2023-05-25T06:37:38.161Z,6.83
2023-05-25T06:40:10.437Z,6.53
2023-05-25T06:42:38.059Z,5.83
2023-05-25T06:45:23.396Z,7.13
2023-05-25T06:47:50.522Z,6.37
2023-05-25T06:50:18.148Z,5.67
2023-05-25T06:52:45.224Z,5.90
2023-05-25T06:55:12.570Z,6.20
2023-05-25T06:57:41.360Z,7.07
2023-05-25T07:00:12.205Z,6.70
2023-05-25T07:02:39.831Z,6.63
2023-05-25T07:05:07.408Z,6.43
2023-05-25T07:07:34.519Z,6.30
2023-05-25T07:10:03.633Z,6.37
2023-05-25T07:12:31.514Z,6.20
2023-05-25T07:14:58.698Z,6.47
2023-05-25T07:17:26.670Z,6.27
2023-05-25T07:19:53.911Z,6.53
2023-05-25T07:22:23.560Z,6.90
2023-05-25T07:24:50.727Z,7.17
2023-05-25T07:27:19.612Z,6.30
2023-05-25T07:29:46.722Z,6.93
2023-05-25T07:32:13.841Z,6.83
2023-05-25T07:34:41.754Z,6.40
2023-05-25T07:37:08.916Z,6.53
2023-05-25T07:39:36.025Z,6.87
2023-05-25T07:42:03.330Z,7.07
2023-05-25T07:44:30.462Z,7.43
2023-05-25T07:46:57.590Z,6.47
2023-05-25T07:49:24.729Z,7.73
2023-05-25T07:51:51.878Z,7.37
2023-05-25T07:54:18.944Z,6.77
2023-05-25T07:56:46.074Z,7.03
2023-05-25T07:59:14.405Z,7.50
2023-05-25T08:01:41.932Z,7.20
2023-05-25T08:04:09.685Z,6.50
2023-05-25T08:06:37.239Z,6.40
2023-05-25T08:09:06.425Z,7.67
2023-05-25T08:11:34.509Z,6.77
2023-05-25T08:14:01.555Z,7.43
2023-05-25T08:16:28.684Z,7.30
2023-05-25T08:18:55.785Z,7.93
2023-05-25T08:21:23.012Z,7.10
2023-05-25T08:23:50.857Z,7.07
2023-05-25T08:26:34.344Z,7.87
2023-05-25T08:29:05.547Z,7.07
2023-05-25T08:31:33.160Z,8.30
2023-05-25T08:34:01.686Z,7.67
2023-05-25T08:36:29.028Z,6.83
2023-05-25T08:38:56.347Z,7.27
2023-05-25T08:41:23.418Z,7.60
2023-05-25T08:43:50.634Z,8.10
2023-05-25T08:46:33.633Z,7.43
2023-05-25T08:49:18.882Z,7.47
2023-05-25T08:51:53.356Z,7.67
2023-05-25T08:54:29.258Z,7.80
2023-05-25T08:57:07.770Z,7.30
2023-05-25T09:00:10.468Z,8.77
2023-05-25T09:03:13.851Z,7.43
2023-05-25T09:05:41.134Z,7.50
2023-05-25T09:08:08.801Z,7.07
2023-05-25T09:10:36.635Z,6.77
2023-05-25T09:13:19.446Z,6.80
2023-05-25T09:15:49.866Z,7.87
2023-05-25T09:18:17.069Z,7.27
2023-05-25T09:20:46.615Z,7.43
2023-05-25T09:23:15.404Z,7.50
2023-05-25T09:25:42.575Z,7.77
2023-05-25T09:30:40.143Z,8.47
2023-05-25T09:33:14.064Z,7.17
2023-05-25T09:35:41.551Z,7.23
2023-05-25T09:38:08.773Z,7.70
2023-05-25T09:40:39.203Z,6.93
2023-05-25T09:43:06.422Z,7.93
2023-05-25T09:45:34.299Z,7.40
2023-05-25T09:48:02.919Z,8.03
2023-05-25T09:50:30.255Z,7.60
2023-05-25T09:53:00.050Z,7.73
2023-05-25T09:55:40.367Z,7.57
2023-05-25T09:58:18.182Z,6.70
2023-05-25T10:00:46.455Z,7.90
2023-05-25T10:03:15.570Z,7.40
2023-05-25T10:05:42.832Z,8.20
2023-05-25T10:08:11.445Z,8.13
2023-05-25T10:10:39.464Z,8.00
2023-05-25T10:13:09.486Z,7.53
2023-05-25T10:15:40.099Z,8.37
2023-05-25T10:18:09.933Z,7.77
2023-05-25T10:20:38.291Z,6.80
2023-05-25T10:23:13.200Z,7.47
2023-05-25T10:25:44.756Z,6.73
2023-05-25T10:28:22.093Z,8.23
2023-05-25T10:30:51.728Z,7.83
2023-05-25T10:33:21.156Z,7.50
2023-05-25T10:36:02.535Z,7.47
2023-05-25T10:38:37.506Z,6.97
2023-05-25T10:41:06.011Z,7.03
2023-05-25T10:43:33.569Z,7.23
2023-05-25T10:46:00.939Z,7.77
2023-05-25T10:48:45.217Z,7.23
2023-05-25T10:51:12.428Z,8.00
2023-05-25T10:53:39.880Z,7.00
2023-05-25T10:56:08.864Z,7.77
2023-05-25T10:58:38.374Z,9.07
2023-05-25T11:01:10.673Z,7.90
2023-05-25T11:04:17.512Z,8.07
2023-05-25T11:07:13.306Z,7.40
2023-05-25T11:09:44.877Z,8.63
2023-05-25T11:12:22.613Z,8.53
2023-05-25T11:15:16.969Z,8.23
2023-05-25T11:18:02.700Z,7.47
2023-05-25T11:20:30.387Z,7.63
2023-05-25T11:22:58.442Z,8.03
2023-05-25T11:25:43.603Z,7.90
2023-05-25T11:28:12.078Z,7.03
2023-05-25T11:30:41.167Z,8.13
2023-05-25T11:33:09.158Z,8.53
2023-05-25T11:35:37.349Z,7.10
2023-05-25T11:38:08.662Z,7.90
2023-05-25T11:40:47.787Z,8.13
2023-05-25T11:43:15.200Z,6.93
2023-05-25T11:45:42.400Z,8.83
2023-05-25T11:48:14.747Z,6.83
2023-05-25T11:50:42.041Z,7.70
2023-05-25T11:53:10.735Z,8.03
2023-05-25T11:55:41.092Z,7.90
2023-05-25T11:58:08.188Z,7.43
2023-05-25T12:00:35.246Z,7.47
2023-05-25T12:03:02.518Z,8.10
2023-05-25T12:05:40.770Z,8.27
2023-05-25T12:08:07.970Z,7.53
2023-05-25T12:10:49.837Z,7.27
2023-05-25T12:13:17.242Z,7.47
2023-05-25T12:15:46.101Z,8.93
2023-05-25T12:18:13.379Z,8.20
2023-05-25T12:20:41.557Z,8.17
2023-05-25T12:23:08.812Z,7.23
2023-05-25T12:25:49.555Z,7.87
2023-05-25T12:28:18.227Z,7.57
2023-05-25T12:30:45.901Z,7.90
2023-05-25T12:33:14.701Z,7.17
2023-05-25T12:35:47.550Z,7.53
2023-05-25T12:38:19.838Z,7.67
2023-05-25T12:40:47.711Z,7.60
2023-05-25T12:43:15.374Z,8.80
2023-05-25T12:45:43.735Z,7.87
2023-05-25T12:48:11.237Z,8.43
2023-05-25T12:50:38.553Z,8.10
2023-05-25T12:53:06.041Z,7.87
2023-05-25T12:55:35.837Z,7.77
2023-05-25T12:58:07.811Z,8.27
2023-05-25T13:00:37.447Z,8.60
2023-05-25T13:03:08.974Z,8.03
2023-05-25T13:05:37.743Z,8.07
2023-05-25T13:08:06.179Z,8.83
2023-05-25T13:10:34.201Z,8.10
2023-05-25T13:13:01.384Z,8.07
2023-05-25T13:15:29.071Z,9.20
2023-05-25T13:17:58.416Z,8.87
2023-05-25T13:20:27.085Z,9.20
2023-05-25T13:22:55.913Z,8.77
2023-05-25T13:25:23.382Z,9.13
2023-05-25T13:27:51.867Z,9.83
2023-05-25T13:30:20.907Z,8.53
2023-05-25T13:32:50.411Z,8.70
2023-05-25T13:35:22.899Z,8.07
2023-05-25T13:37:51.375Z,8.03
2023-05-25T13:40:19.209Z,8.97
2023-05-25T13:42:46.425Z,8.80
2023-05-25T13:45:13.968Z,9.23
2023-05-25T13:47:43.691Z,9.10
2023-05-25T13:50:11.722Z,10.37
2023-05-25T13:52:38.978Z,9.60
2023-05-25T13:55:07.521Z,9.87
2023-05-25T13:57:34.649Z,9.03
2023-05-25T14:00:01.716Z,10.27
2023-05-25T14:02:29.432Z,9.63
2023-05-25T14:04:57.270Z,8.80
2023-05-25T14:07:24.361Z,9.10
2023-05-25T14:09:51.472Z,9.10
2023-05-25T14:12:18.538Z,8.13
2023-05-25T14:14:45.693Z,9.00
2023-05-25T14:17:12.791Z,8.80
2023-05-25T14:19:39.866Z,9.37
2023-05-25T14:24:37.012Z,8.60
2023-05-25T14:27:05.046Z,9.07
2023-05-25T14:29:32.098Z,9.30
2023-05-25T14:31:59.186Z,9.20
2023-05-25T14:34:26.346Z,8.83
2023-05-25T14:36:53.400Z,8.00
2023-05-25T14:39:20.502Z,7.67
2023-05-25T14:41:47.683Z,8.97
2023-05-25T14:44:14.780Z,8.00
2023-05-25T14:46:41.925Z,9.50
2023-05-25T14:49:09.078Z,8.40
2023-05-25T14:51:37.047Z,10.30
2023-05-25T14:54:06.349Z,8.90
2023-05-25T14:56:33.735Z,9.03
2023-05-25T14:59:00.877Z,9.03
2023-05-25T15:01:29.411Z,8.23
2023-05-25T15:03:56.991Z,8.90
2023-05-25T15:06:24.327Z,9.07
2023-05-25T15:08:51.504Z,9.30
2023-05-25T15:11:18.877Z,8.13
2023-05-25T15:13:46.296Z,8.37
2023-05-25T15:16:17.074Z,9.23
2023-05-25T15:18:44.714Z,8.83
2023-05-25T15:21:12.105Z,9.73
2023-05-25T15:23:39.180Z,9.43
2023-05-25T15:26:08.271Z,8.30
2023-05-25T15:28:35.514Z,9.53
2023-05-25T15:31:03.298Z,8.63
2023-05-25T15:33:44.465Z,7.80
2023-05-25T15:36:17.138Z,8.57
2023-05-25T15:38:45.780Z,8.43
2023-05-25T15:41:16.126Z,7.50
2023-05-25T15:43:52.777Z,7.77
2023-05-25T15:46:20.145Z,8.17
2023-05-25T15:48:47.310Z,8.83
2023-05-25T15:51:14.378Z,9.20
2023-05-25T15:53:41.479Z,8.77
2023-05-25T15:56:08.586Z,8.20
2023-05-25T15:58:35.694Z,9.20
2023-05-25T16:01:02.846Z,8.83
2023-05-25T16:03:30.004Z,9.23
2023-05-25T16:05:57.477Z,8.87
2023-05-25T16:08:24.617Z,7.97
2023-05-25T16:10:51.758Z,8.40
2023-05-25T16:13:18.894Z,8.30
2023-05-25T16:15:46.685Z,8.60
2023-05-25T16:18:14.049Z,8.20
2023-05-25T16:20:41.322Z,9.03
2023-05-25T16:23:08.805Z,7.93
2023-05-25T16:25:36.002Z,9.57
2023-05-25T16:28:03.064Z,8.67
2023-05-25T16:30:30.108Z,9.17
2023-05-25T16:32:57.253Z,8.23
2023-05-25T16:35:24.423Z,7.10
2023-05-25T16:37:51.529Z,7.20
2023-05-25T16:40:18.574Z,8.00
2023-05-25T16:42:45.885Z,8.13
2023-05-25T16:45:13.027Z,8.30
2023-05-25T16:47:40.130Z,7.20
2023-05-25T16:50:08.366Z,7.50
2023-05-25T16:52:35.942Z,7.10
2023-05-25T16:55:03.136Z,7.63
2023-05-25T16:57:30.200Z,7.93
2023-05-25T16:59:57.258Z,7.50
2023-05-25T17:02:24.587Z,8.13
2023-05-25T17:04:51.664Z,8.10
2023-05-25T17:07:18.792Z,8.20
2023-05-25T17:09:45.908Z,7.17
2023-05-25T17:12:13.020Z,7.10
2023-05-25T17:14:40.098Z,7.80
2023-05-25T17:17:07.223Z,7.27
2023-05-25T17:19:34.836Z,7.73
2023-05-25T17:22:01.960Z,7.93
2023-05-25T17:24:29.037Z,7.20
2023-05-25T17:26:56.203Z,7.37
2023-05-25T17:29:23.308Z,8.10
2023-05-25T17:31:50.616Z,7.53
2023-05-25T17:34:17.830Z,7.67
2023-05-25T17:36:44.923Z,7.77
2023-05-25T17:39:12.183Z,7.17
2023-05-25T17:41:39.220Z,6.83
2023-05-25T17:44:06.318Z,7.20
2023-05-25T17:46:33.738Z,7.43
2023-05-25T17:49:00.997Z,7.20
2023-05-25T17:51:28.117Z,7.20
2023-05-25T17:53:55.159Z,6.97
2023-05-25T17:56:22.356Z,7.03
2023-05-25T17:58:49.454Z,6.43
2023-05-25T18:01:16.961Z,7.27
2023-05-25T18:03:44.308Z,6.93
2023-05-25T18:06:11.565Z,7.37
2023-05-25T18:08:38.650Z,7.53
2023-05-25T18:11:05.880Z,6.70
2023-05-25T18:13:33.005Z,7.10
2023-05-25T18:16:00.063Z,7.10
2023-05-25T18:18:27.321Z,7.00
2023-05-25T18:20:54.411Z,7.10
2023-05-25T18:23:22.460Z,6.77
2023-05-25T18:25:49.586Z,7.37
2023-05-25T18:28:16.703Z,6.90
2023-05-25T18:30:43.983Z,6.83
2023-05-25T18:33:11.152Z,7.00
2023-05-25T18:35:38.502Z,6.83
2023-05-25T18:38:06.762Z,7.80
2023-05-25T18:40:34.109Z,7.70
2023-05-25T18:43:01.295Z,8.23
2023-05-25T18:45:28.429Z,7.90
2023-05-25T18:47:55.583Z,7.80
2023-05-25T18:50:22.714Z,8.40
2023-05-25T18:52:51.523Z,8.27
2023-05-25T18:55:19.325Z,8.53
2023-05-25T18:57:46.948Z,7.83
2023-05-25T19:00:14.849Z,7.93
2023-05-25T19:02:42.109Z,6.73
2023-05-25T19:05:11.757Z,7.53
2023-05-25T19:07:51.049Z,7.27
2023-05-25T19:10:25.602Z,7.30
2023-05-25T19:12:52.756Z,8.00
2023-05-25T19:15:19.955Z,6.97
2023-05-25T19:17:47.257Z,6.77
2023-05-25T19:20:14.706Z,6.67
2023-05-25T19:22:42.059Z,6.97
2023-05-25T19:25:09.358Z,6.70
2023-05-25T19:27:36.594Z,6.73
2023-05-25T19:30:04.144Z,6.80
2023-05-25T19:32:31.373Z,6.83
2023-05-25T19:34:58.542Z,6.63
2023-05-25T19:37:26.576Z,8.07
2023-05-25T19:39:53.627Z,6.77
2023-05-25T19:42:20.817Z,6.80
2023-05-25T19:44:47.899Z,6.40
2023-05-25T19:47:14.971Z,7.03
2023-05-25T19:49:42.050Z,6.57
2023-05-25T19:52:09.200Z,6.70
2023-05-25T19:54:36.405Z,7.20
2023-05-25T19:57:03.967Z,7.10
2023-05-25T19:59:31.562Z,7.20
2023-05-25T20:01:58.955Z,7.20
2023-05-25T20:04:26.368Z,6.23
2023-05-25T20:06:54.216Z,7.00
2023-05-25T20:09:29.746Z,7.00
2023-05-25T20:11:58.437Z,7.47
2023-05-25T20:14:25.851Z,7.10
2023-05-25T20:16:55.369Z,7.60
2023-05-25T20:19:23.466Z,7.07
2023-05-25T20:21:50.890Z,6.43
2023-05-25T20:24:18.252Z,6.83
2023-05-25T20:26:45.362Z,7.63
2023-05-25T20:29:12.459Z,6.93
2023-05-25T20:31:40.371Z,6.30
2023-05-25T20:34:07.592Z,7.30
2023-05-25T20:36:34.704Z,6.83
2023-05-25T20:39:03.213Z,6.60
2023-05-25T20:41:30.440Z,9.60
2023-05-25T20:43:57.955Z,9.20
2023-05-25T20:46:25.303Z,9.87
2023-05-25T20:48:53.548Z,8.50
2023-05-25T20:51:21.866Z,8.10
2023-05-25T20:53:49.031Z,9.00
2023-05-25T20:56:16.439Z,11.63
2023-05-25T20:58:43.624Z,10.83
2023-05-25T21:01:10.727Z,10.63
2023-05-25T21:03:37.922Z,10.97
2023-05-25T21:06:05.111Z,11.93
2023-05-25T21:08:33.774Z,11.53
2023-05-25T21:11:01.101Z,11.17
2023-05-25T21:13:28.304Z,10.30
2023-05-25T21:15:55.863Z,10.70
2023-05-25T21:18:23.001Z,10.47
2023-05-25T21:20:50.160Z,10.97
2023-05-25T21:23:17.254Z,11.07
2023-05-25T21:25:45.060Z,11.47
2023-05-25T21:28:12.335Z,10.83
2023-05-25T21:30:39.420Z,11.30
2023-05-25T21:33:06.590Z,10.33
2023-05-25T21:35:33.813Z,11.13
2023-05-25T21:38:01.008Z,11.27
2023-05-25T21:40:28.127Z,11.50
2023-05-25T21:42:55.288Z,10.53
2023-05-25T21:45:22.447Z,12.17
2023-05-25T21:47:49.656Z,12.57
2023-05-25T21:50:16.875Z,12.00
2023-05-25T21:52:44.001Z,12.73
2023-05-25T21:55:11.200Z,13.10
2023-05-25T21:57:38.321Z,11.50
2023-05-25T22:00:06.667Z,11.70
2023-05-25T22:02:39.612Z,13.10
2023-05-25T22:05:07.216Z,13.07
2023-05-25T22:07:34.290Z,13.97
2023-05-25T22:10:01.365Z,13.97
2023-05-25T22:12:28.406Z,13.13
2023-05-25T22:14:55.664Z,12.30
2023-05-25T22:17:22.857Z,10.67
2023-05-25T22:20:03.210Z,11.83
2023-05-25T22:22:34.945Z,11.73
2023-05-25T22:25:02.114Z,10.97
2023-05-25T22:27:29.199Z,11.53
2023-05-25T22:29:56.282Z,13.17
2023-05-25T22:32:23.505Z,11.93
2023-05-25T22:34:50.725Z,12.80
2023-05-25T22:37:17.948Z,12.23
2023-05-25T22:39:45.337Z,12.20
2023-05-25T22:42:12.494Z,12.57
2023-05-25T22:44:39.596Z,13.87
2023-05-25T22:47:07.092Z,12.07
2023-05-25T22:49:41.220Z,11.83
2023-05-25T22:52:11.277Z,11.70
2023-05-25T22:54:38.451Z,12.67
2023-05-25T22:57:05.988Z,12.43
2023-05-25T22:59:33.047Z,13.27
2023-05-25T23:02:00.344Z,14.43
2023-05-25T23:04:28.100Z,13.37
2023-05-25T23:06:55.218Z,12.90
2023-05-25T23:09:22.316Z,12.43
2023-05-25T23:11:49.427Z,13.27
2023-05-25T23:14:16.476Z,11.33
2023-05-25T23:16:44.607Z,12.20
2023-05-25T23:19:11.823Z,13.03
2023-05-25T23:21:39.136Z,12.90
2023-05-25T23:24:06.674Z,12.90
2023-05-25T23:26:33.904Z,13.53
2023-05-25T23:29:01.020Z,13.43
2023-05-25T23:31:28.107Z,13.73
2023-05-25T23:33:55.206Z,13.23
2023-05-25T23:36:26.275Z,14.43
2023-05-25T23:38:53.456Z,13.27
2023-05-25T23:41:21.267Z,14.13
2023-05-25T23:43:48.376Z,13.40
2023-05-25T23:46:16.454Z,14.43
2023-05-25T23:48:44.877Z,15.20
2023-05-25T23:51:12.242Z,14.80
2023-05-25T23:53:39.693Z,15.07
2023-05-25T23:56:07.063Z,14.43
2023-05-25T23:58:34.214Z,13.57
